Time;durP1;ratioP1;P1;durP2;ratioP2;P2;SDS_P1;SDS_P2;PMS_P1;PMS_P2;Temp;Humidity;BMP_temperature;BMP_pressure;BME280_temperature;BME280_humidity;BME280_pressure;Samples;Min_cycle;Max_cycle;Signal;HPM_P1;HPM_P2
2023/08/11 00:00:08;;;;;;;7.85;4.55;;;17.60;99.90;;;;;;5067715;28;20254;-80
2023/08/11 00:02:36;;;;;;;6.88;4.15;;;17.60;99.90;;;;;;5067751;28;20353;-80
2023/08/11 00:05:03;;;;;;;7.82;4.45;;;17.60;99.90;;;;;;5067833;28;20478;-80
2023/08/11 00:07:28;;;;;;;4.43;2.58;;;17.50;99.90;;;;;;5067029;28;20557;-80
2023/08/11 00:09:55;;;;;;;5.05;3.60;;;17.50;99.90;;;;;;5068195;28;20076;-80
2023/08/11 00:12:21;;;;;;;8.40;4.63;;;17.50;99.90;;;;;;5047838;28;20056;-80
2023/08/11 00:14:46;;;;;;;7.22;3.72;;;17.40;99.90;;;;;;5056457;28;20033;-80
2023/08/11 00:17:12;;;;;;;6.68;3.15;;;17.40;99.90;;;;;;5063313;28;20081;-80
2023/08/11 00:19:37;;;;;;;7.07;3.80;;;17.40;99.90;;;;;;5055607;28;20475;-80
2023/08/11 00:22:03;;;;;;;6.15;3.97;;;17.40;99.90;;;;;;5056073;28;20040;-80
2023/08/11 00:24:29;;;;;;;6.88;3.97;;;17.30;99.90;;;;;;5067602;28;20045;-80
2023/08/11 00:26:54;;;;;;;7.95;5.10;;;17.30;99.90;;;;;;5045056;28;20049;-80
2023/08/11 00:29:21;;;;;;;7.03;5.05;;;17.30;99.90;;;;;;5038878;28;20052;-80
2023/08/11 00:31:46;;;;;;;5.38;3.45;;;17.20;99.90;;;;;;5039723;28;20190;-80
2023/08/11 00:34:12;;;;;;;8.35;5.88;;;17.20;99.90;;;;;;5042858;28;20144;-80
2023/08/11 00:36:38;;;;;;;8.52;5.35;;;17.10;99.90;;;;;;5041103;28;20052;-80
2023/08/11 00:39:03;;;;;;;11.50;6.75;;;17.10;99.90;;;;;;5043521;28;20476;-80
2023/08/11 00:41:30;;;;;;;8.48;5.68;;;17.00;99.90;;;;;;5045857;28;20048;-80
2023/08/11 00:43:56;;;;;;;3.70;2.30;;;17.00;99.90;;;;;;5043482;28;20036;-80
2023/08/11 00:46:23;;;;;;;7.63;4.68;;;17.00;99.90;;;;;;5046873;28;20415;-80
2023/08/11 00:48:53;;;;;;;10.07;6.93;;;16.90;99.90;;;;;;5030494;28;20088;-80
2023/08/11 00:51:22;;;;;;;10.60;6.78;;;16.90;99.90;;;;;;5039533;28;20045;-80
2023/08/11 00:53:49;;;;;;;7.82;5.30;;;16.80;99.90;;;;;;5040513;28;20045;-80
2023/08/11 00:56:19;;;;;;;9.82;7.15;;;16.70;99.90;;;;;;5040848;28;20048;-80
2023/08/11 00:58:45;;;;;;;11.45;7.82;;;16.80;99.90;;;;;;5043945;28;20029;-80
2023/08/11 01:01:11;;;;;;;10.45;8.40;;;16.70;99.90;;;;;;5046724;28;20056;-80
2023/08/11 01:03:37;;;;;;;7.30;5.05;;;16.60;99.90;;;;;;5044023;28;20045;-80
2023/08/11 01:06:28;;;;;;;11.23;7.70;;;16.60;99.90;;;;;;5041949;28;20040;-80
2023/08/11 01:09:38;;;;;;;9.10;4.60;;;16.70;99.90;;;;;;5050507;28;20041;-80
2023/08/11 01:12:10;;;;;;;10.70;6.60;;;16.60;99.90;;;;;;5044472;28;20107;-80
2023/08/11 01:14:52;;;;;;;12.48;8.38;;;16.60;99.90;;;;;;5044653;28;20064;-80
2023/08/11 01:17:18;;;;;;;10.57;7.90;;;16.50;99.90;;;;;;5041494;28;20051;-80
2023/08/11 01:19:45;;;;;;;12.85;7.57;;;16.50;99.90;;;;;;5048258;28;20666;-80
2023/08/11 01:22:17;;;;;;;12.63;8.40;;;16.50;99.90;;;;;;5038581;28;20046;-80
2023/08/11 01:24:44;;;;;;;7.85;6.38;;;16.50;99.90;;;;;;5041049;28;20055;-80
2023/08/11 01:27:11;;;;;;;13.70;8.30;;;16.40;99.90;;;;;;5065513;28;20127;-80
2023/08/11 01:29:36;;;;;;;10.25;8.15;;;16.40;99.90;;;;;;5063548;28;20408;-80
2023/08/11 01:32:02;;;;;;;9.38;6.32;;;16.40;99.90;;;;;;5070646;28;20123;-80
2023/08/11 01:34:28;;;;;;;11.68;7.85;;;16.40;99.90;;;;;;5066843;28;20039;-80
2023/08/11 01:37:01;;;;;;;9.38;6.13;;;16.40;99.90;;;;;;5046898;28;20043;-80
2023/08/11 01:39:28;;;;;;;12.02;8.48;;;16.40;99.90;;;;;;5060289;28;20037;-80
2023/08/11 01:41:54;;;;;;;13.93;9.77;;;16.30;99.90;;;;;;5062962;28;20076;-80
2023/08/11 01:44:20;;;;;;;14.40;10.43;;;16.30;99.90;;;;;;5065498;28;20098;-80
2023/08/11 01:46:47;;;;;;;15.00;10.07;;;16.30;99.90;;;;;;5069265;28;20044;-80
2023/08/11 01:49:13;;;;;;;13.93;10.00;;;16.20;99.90;;;;;;5070177;28;20501;-80
2023/08/11 01:51:39;;;;;;;13.40;10.02;;;16.30;99.90;;;;;;5069904;28;20089;-80
2023/08/11 01:54:07;;;;;;;16.38;11.27;;;16.20;99.90;;;;;;5070459;28;20068;-80
2023/08/11 01:56:34;;;;;;;16.17;11.10;;;16.20;99.90;;;;;;5069059;28;20035;-80
2023/08/11 01:59:03;;;;;;;14.90;9.88;;;16.20;99.90;;;;;;5063543;28;20043;-80
2023/08/11 02:01:28;;;;;;;17.75;12.55;;;16.10;99.90;;;;;;5066132;28;20060;-80
2023/08/11 02:03:54;;;;;;;14.27;12.00;;;16.10;99.90;;;;;;5062878;28;20036;-80
2023/08/11 02:06:19;;;;;;;16.00;11.50;;;16.10;99.90;;;;;;5041930;28;20067;-80
2023/08/11 02:08:46;;;;;;;15.80;11.43;;;16.00;99.90;;;;;;5063933;28;20044;-80
2023/08/11 02:11:13;;;;;;;15.93;11.10;;;16.00;99.90;;;;;;5035714;28;20057;-80
2023/08/11 02:13:39;;;;;;;14.48;11.05;;;16.00;99.90;;;;;;5052096;28;20479;-80
2023/08/11 02:16:05;;;;;;;16.98;12.55;;;16.00;99.90;;;;;;5069714;28;20528;-80
2023/08/11 02:18:30;;;;;;;16.52;11.88;;;16.00;99.90;;;;;;5059760;28;20037;-80
2023/08/11 02:20:56;;;;;;;18.65;11.13;;;16.00;99.90;;;;;;5063492;28;20068;-80
2023/08/11 02:23:22;;;;;;;16.25;12.73;;;15.90;99.90;;;;;;5063900;28;20048;-80
2023/08/11 02:25:47;;;;;;;17.70;13.55;;;15.90;99.90;;;;;;5040266;28;20308;-80
2023/08/11 02:28:13;;;;;;;17.10;13.20;;;15.90;99.90;;;;;;5048497;28;20052;-80
2023/08/11 02:30:41;;;;;;;18.02;13.00;;;15.90;99.90;;;;;;5069084;28;20509;-80
2023/08/11 02:33:07;;;;;;;16.65;12.77;;;15.90;99.90;;;;;;5068653;28;20048;-80
2023/08/11 02:35:33;;;;;;;20.42;13.32;;;15.80;99.90;;;;;;5062808;28;20037;-80
2023/08/11 02:37:58;;;;;;;16.38;12.07;;;15.80;99.90;;;;;;5060369;28;20052;-80
2023/08/11 02:40:24;;;;;;;19.08;14.07;;;15.80;99.90;;;;;;5040799;28;20483;-80
2023/08/11 02:42:55;;;;;;;15.23;12.38;;;15.80;99.90;;;;;;5058339;28;20044;-80
2023/08/11 02:45:20;;;;;;;19.38;12.70;;;15.80;99.90;;;;;;5068544;28;20040;-80
2023/08/11 02:47:46;;;;;;;15.75;13.60;;;15.80;99.90;;;;;;5068711;28;20032;-80
2023/08/11 02:50:13;;;;;;;14.35;12.65;;;15.70;99.90;;;;;;5045491;28;20043;-80
2023/08/11 02:52:39;;;;;;;13.20;10.23;;;15.70;99.90;;;;;;5068742;28;20054;-80
2023/08/11 02:55:05;;;;;;;16.23;12.52;;;15.80;99.90;;;;;;5041635;28;20040;-80
2023/08/11 02:57:31;;;;;;;17.02;12.55;;;15.70;99.90;;;;;;5063538;28;20037;-80
2023/08/11 02:59:57;;;;;;;16.45;11.98;;;15.70;99.90;;;;;;5068870;28;20595;-80
2023/08/11 03:02:23;;;;;;;17.23;12.90;;;15.70;99.90;;;;;;5068649;28;20043;-80
2023/08/11 03:04:48;;;;;;;15.35;12.40;;;15.70;99.90;;;;;;5050405;28;20048;-80
2023/08/11 03:07:16;;;;;;;16.98;12.48;;;15.70;99.90;;;;;;5039756;28;20051;-80
2023/08/11 03:09:41;;;;;;;12.98;9.70;;;15.70;99.90;;;;;;5068304;28;20048;-80
2023/08/11 03:12:08;;;;;;;16.73;12.10;;;15.70;99.90;;;;;;5059664;28;20032;-80
2023/08/11 03:14:36;;;;;;;15.63;12.00;;;15.70;99.90;;;;;;5054564;28;20040;-80
2023/08/11 03:17:05;;;;;;;16.25;11.52;;;15.70;99.90;;;;;;5045365;28;20044;-80
2023/08/11 03:19:31;;;;;;;14.93;11.23;;;15.60;99.90;;;;;;5061657;28;20048;-80
2023/08/11 03:21:57;;;;;;;14.85;11.25;;;15.60;99.90;;;;;;5067539;28;20048;-80
2023/08/11 03:24:22;;;;;;;13.30;10.35;;;15.70;99.90;;;;;;5063397;28;20051;-80
2023/08/11 03:26:48;;;;;;;18.42;11.52;;;15.70;99.90;;;;;;5058378;28;20120;-80
2023/08/11 03:29:14;;;;;;;13.52;11.10;;;15.60;99.90;;;;;;5063686;28;20041;-80
2023/08/11 03:31:40;;;;;;;16.15;11.63;;;15.60;99.90;;;;;;5048119;28;20037;-80
2023/08/11 03:34:06;;;;;;;15.30;11.15;;;15.60;99.90;;;;;;5062247;28;20048;-80
2023/08/11 03:36:31;;;;;;;13.77;10.93;;;15.60;99.90;;;;;;5067670;28;20041;-80
2023/08/11 03:38:57;;;;;;;18.77;10.98;;;15.60;99.90;;;;;;5051516;28;20371;-80
2023/08/11 03:41:22;;;;;;;15.18;11.02;;;15.60;99.90;;;;;;5067982;28;20062;-80
2023/08/11 03:43:48;;;;;;;16.05;10.48;;;15.60;99.90;;;;;;5068353;28;20044;-80
2023/08/11 03:46:14;;;;;;;15.18;11.48;;;15.60;99.90;;;;;;5051086;28;20580;-80
2023/08/11 03:48:41;;;;;;;14.68;11.35;;;15.50;99.90;;;;;;5068146;28;20322;-80
2023/08/11 03:51:07;;;;;;;13.75;10.77;;;15.50;99.90;;;;;;5062940;28;20518;-80
2023/08/11 03:53:36;;;;;;;15.82;11.30;;;15.50;99.90;;;;;;5060115;28;20029;-80
2023/08/11 03:56:02;;;;;;;14.38;11.63;;;15.50;99.90;;;;;;5055286;28;20558;-80
2023/08/11 03:58:32;;;;;;;15.40;11.65;;;15.40;99.90;;;;;;5059070;28;20036;-80
2023/08/11 04:00:58;;;;;;;17.67;12.13;;;15.50;99.90;;;;;;5040428;28;20044;-80
2023/08/11 04:03:27;;;;;;;14.07;10.35;;;15.50;99.90;;;;;;5066685;28;20089;-80
2023/08/11 04:05:53;;;;;;;14.15;10.50;;;15.50;99.90;;;;;;5067093;28;20109;-80
2023/08/11 04:08:20;;;;;;;16.92;11.93;;;15.40;99.90;;;;;;5059934;28;20064;-80
2023/08/11 04:10:46;;;;;;;15.60;11.77;;;15.40;99.90;;;;;;5042648;28;20044;-80
2023/08/11 04:13:11;;;;;;;14.57;11.25;;;15.40;99.90;;;;;;5059519;28;20123;-80
2023/08/11 04:15:38;;;;;;;14.15;11.13;;;15.50;99.90;;;;;;5061873;28;20037;-80
2023/08/11 04:18:04;;;;;;;16.23;11.38;;;15.40;99.90;;;;;;5045773;28;20048;-80
2023/08/11 04:20:30;;;;;;;16.50;10.52;;;15.40;99.90;;;;;;5050227;28;20047;-80
2023/08/11 04:22:56;;;;;;;14.57;10.88;;;15.40;99.90;;;;;;5063753;28;20487;-80
2023/08/11 04:25:22;;;;;;;14.52;10.30;;;15.40;99.90;;;;;;5067080;28;20159;-80
2023/08/11 04:27:47;;;;;;;15.18;9.95;;;15.40;99.90;;;;;;5035936;28;20498;-80
2023/08/11 04:30:13;;;;;;;15.25;10.02;;;15.40;99.90;;;;;;5061333;28;20043;-80
2023/08/11 04:32:39;;;;;;;15.60;10.20;;;15.40;99.90;;;;;;5062759;28;20025;-80
2023/08/11 04:35:06;;;;;;;17.52;11.27;;;15.40;99.90;;;;;;5067546;28;20080;-80
2023/08/11 04:37:33;;;;;;;12.45;9.15;;;15.40;99.90;;;;;;5069432;28;20044;-80
2023/08/11 04:39:59;;;;;;;16.33;10.73;;;15.40;99.90;;;;;;5067710;28;20119;-80
2023/08/11 04:42:25;;;;;;;14.23;11.30;;;15.40;99.90;;;;;;5065958;28;20120;-80
2023/08/11 04:44:50;;;;;;;15.10;10.68;;;15.40;99.90;;;;;;5042421;28;20106;-80
2023/08/11 04:47:16;;;;;;;16.17;11.43;;;15.30;99.90;;;;;;5068716;28;20041;-80
2023/08/11 04:49:42;;;;;;;14.52;10.60;;;15.40;99.90;;;;;;5071008;28;20045;-80
2023/08/11 04:52:08;;;;;;;12.30;10.00;;;15.40;99.90;;;;;;5066571;28;20041;-80
2023/08/11 04:54:34;;;;;;;15.73;10.30;;;15.40;99.90;;;;;;5047758;28;20143;-80
2023/08/11 04:57:00;;;;;;;17.65;10.38;;;15.40;99.90;;;;;;5070315;28;20127;-80
2023/08/11 04:59:25;;;;;;;12.10;8.80;;;15.50;99.90;;;;;;5063524;28;20306;-80
2023/08/11 05:01:51;;;;;;;14.00;9.75;;;15.40;99.90;;;;;;5064642;28;20170;-80
2023/08/11 05:04:16;;;;;;;12.60;7.97;;;15.50;99.90;;;;;;5057174;28;20036;-80
2023/08/11 05:06:42;;;;;;;15.25;9.85;;;15.50;99.90;;;;;;5066463;28;20037;-80
2023/08/11 05:09:08;;;;;;;14.15;9.40;;;15.50;99.90;;;;;;5054844;28;20044;-80
2023/08/11 05:11:34;;;;;;;16.30;9.80;;;15.50;99.90;;;;;;5046327;28;20324;-80
2023/08/11 05:14:00;;;;;;;14.75;9.18;;;15.50;99.90;;;;;;5037990;28;20094;-80
2023/08/11 05:16:25;;;;;;;15.20;9.77;;;15.50;99.90;;;;;;5048122;28;20032;-80
2023/08/11 05:18:51;;;;;;;12.65;8.77;;;15.50;99.90;;;;;;5066272;28;20040;-80
2023/08/11 05:21:17;;;;;;;13.40;8.80;;;15.50;99.90;;;;;;5052012;28;20048;-80
2023/08/11 05:23:43;;;;;;;14.43;9.98;;;15.60;99.90;;;;;;5066615;28;20068;-80
2023/08/11 05:26:08;;;;;;;11.27;8.57;;;15.60;99.90;;;;;;5065641;28;20503;-80
2023/08/11 05:28:34;;;;;;;14.25;8.45;;;15.70;99.90;;;;;;5070642;28;20052;-80
2023/08/11 05:31:03;;;;;;;12.07;7.95;;;15.70;99.90;;;;;;5070720;28;20036;-80
2023/08/11 05:33:29;;;;;;;11.95;8.25;;;15.70;99.90;;;;;;5063269;28;20094;-80
2023/08/11 05:35:55;;;;;;;11.55;8.75;;;15.70;99.90;;;;;;5070550;28;20036;-80
2023/08/11 05:38:22;;;;;;;10.57;7.63;;;15.70;99.90;;;;;;5070374;28;20051;-80
2023/08/11 05:40:48;;;;;;;11.00;7.00;;;15.70;99.90;;;;;;5070392;28;20040;-80
2023/08/11 05:43:14;;;;;;;11.85;7.65;;;15.80;99.90;;;;;;5043396;28;20048;-80
2023/08/11 05:45:40;;;;;;;11.18;7.88;;;15.70;99.90;;;;;;5042606;28;20037;-80
2023/08/11 05:48:06;;;;;;;10.50;6.97;;;15.80;99.90;;;;;;5042381;28;20116;-80
2023/08/11 05:50:32;;;;;;;10.73;7.07;;;15.90;99.90;;;;;;5045238;28;20040;-80
2023/08/11 05:52:57;;;;;;;10.02;7.30;;;15.90;99.90;;;;;;5065672;28;20166;-80
2023/08/11 05:55:23;;;;;;;13.13;7.10;;;15.90;99.90;;;;;;5069777;28;20056;-80
2023/08/11 05:57:49;;;;;;;11.55;7.05;;;16.00;99.90;;;;;;5048759;28;20041;-80
2023/08/11 06:00:17;;;;;;;11.88;6.97;;;16.00;99.90;;;;;;5062525;28;20045;-80
2023/08/11 06:02:43;;;;;;;13.77;7.18;;;16.10;99.90;;;;;;5063995;28;20233;-80
2023/08/11 06:05:09;;;;;;;11.55;6.05;;;16.20;99.90;;;;;;5062965;28;20112;-80
2023/08/11 06:07:34;;;;;;;13.65;6.88;;;16.20;99.90;;;;;;5059714;28;20138;-80
2023/08/11 06:10:00;;;;;;;10.48;6.75;;;16.20;99.90;;;;;;5070525;28;20036;-80
2023/08/11 06:12:26;;;;;;;8.55;6.40;;;16.30;99.90;;;;;;5069462;28;20040;-80
2023/08/11 06:14:51;;;;;;;9.73;6.53;;;16.30;99.90;;;;;;5065535;28;20043;-80
2023/08/11 06:17:17;;;;;;;8.98;5.75;;;16.40;99.90;;;;;;5052439;28;20039;-80
2023/08/11 06:19:43;;;;;;;13.07;6.40;;;16.40;99.90;;;;;;5048934;28;20033;-80
2023/08/11 06:22:09;;;;;;;8.98;5.95;;;16.50;99.90;;;;;;5065670;28;20044;-80
2023/08/11 06:24:35;;;;;;;11.15;5.60;;;16.50;99.90;;;;;;5064493;28;20037;-80
2023/08/11 06:27:01;;;;;;;9.07;5.97;;;16.50;99.90;;;;;;5053265;28;20082;-80
2023/08/11 06:29:26;;;;;;;11.55;5.65;;;16.60;99.90;;;;;;5048160;28;20036;-80
2023/08/11 06:31:52;;;;;;;8.13;5.97;;;16.60;99.90;;;;;;5069794;28;20047;-80
2023/08/11 06:34:18;;;;;;;8.60;5.47;;;16.70;99.90;;;;;;5041423;28;20059;-80
2023/08/11 06:36:45;;;;;;;8.45;5.80;;;16.70;99.90;;;;;;5062707;28;20040;-80
2023/08/11 06:39:11;;;;;;;8.50;5.80;;;16.80;99.90;;;;;;5052387;28;20052;-80
2023/08/11 06:41:38;;;;;;;9.13;5.88;;;16.80;99.90;;;;;;5068827;28;20033;-80
2023/08/11 06:44:04;;;;;;;8.27;6.00;;;16.90;99.90;;;;;;5065369;28;20037;-80
2023/08/11 06:46:30;;;;;;;11.63;6.07;;;17.00;99.90;;;;;;5062542;28;20094;-80
2023/08/11 06:48:56;;;;;;;9.35;5.60;;;17.00;99.90;;;;;;5042335;28;20045;-80
2023/08/11 06:51:24;;;;;;;8.40;5.40;;;17.10;99.90;;;;;;5057977;28;20131;-80
2023/08/11 06:53:50;;;;;;;11.70;5.90;;;17.20;99.90;;;;;;5054944;28;20029;-80
2023/08/11 06:56:15;;;;;;;9.55;5.10;;;17.20;99.90;;;;;;5046146;28;20044;-80
2023/08/11 06:58:41;;;;;;;9.60;5.47;;;17.30;99.90;;;;;;5066980;28;20056;-80
2023/08/11 07:01:06;;;;;;;9.15;5.28;;;17.40;99.90;;;;;;5064950;28;20502;-80
2023/08/11 07:03:33;;;;;;;8.82;5.28;;;17.40;99.90;;;;;;5068626;28;20040;-80
2023/08/11 07:06:00;;;;;;;13.23;5.15;;;17.50;99.90;;;;;;5045959;28;20048;-80
2023/08/11 07:08:26;;;;;;;8.13;5.47;;;17.60;99.90;;;;;;5044816;28;20033;-80
2023/08/11 07:10:51;;;;;;;8.60;4.93;;;17.60;99.90;;;;;;5066901;28;20040;-80
2023/08/11 07:13:17;;;;;;;8.52;5.00;;;17.70;99.90;;;;;;5046870;28;20041;-80
2023/08/11 07:15:43;;;;;;;7.88;4.60;;;17.70;99.90;;;;;;5064148;28;20406;-80
2023/08/11 07:18:10;;;;;;;7.85;4.80;;;17.80;99.90;;;;;;5068631;28;20041;-80
2023/08/11 07:20:40;;;;;;;11.63;5.38;;;17.80;99.90;;;;;;5064085;28;20068;-80
2023/08/11 07:23:06;;;;;;;8.68;4.72;;;18.00;99.90;;;;;;5068236;28;20040;-80
2023/08/11 07:25:32;;;;;;;9.38;5.00;;;18.10;99.90;;;;;;5067714;28;20048;-80
2023/08/11 07:27:57;;;;;;;8.98;4.30;;;18.10;99.90;;;;;;5068284;28;20438;-80
2023/08/11 07:30:23;;;;;;;6.63;4.43;;;18.20;99.90;;;;;;5042742;28;20494;-80
2023/08/11 07:32:48;;;;;;;7.25;4.22;;;18.30;99.90;;;;;;5056903;28;20041;-80
2023/08/11 07:35:14;;;;;;;6.72;4.40;;;18.30;99.90;;;;;;5045067;28;20033;-80
2023/08/11 07:37:40;;;;;;;7.50;4.47;;;18.50;99.90;;;;;;5065079;28;20032;-80
2023/08/11 07:40:06;;;;;;;8.63;5.00;;;18.50;99.90;;;;;;5062701;28;20127;-80
2023/08/11 07:42:32;;;;;;;8.80;5.15;;;18.60;99.90;;;;;;5068121;28;20170;-80
2023/08/11 07:44:58;;;;;;;8.35;5.35;;;18.70;99.90;;;;;;5058494;28;20116;-80
2023/08/11 07:47:23;;;;;;;7.97;4.40;;;18.80;99.90;;;;;;5063788;28;20032;-80
2023/08/11 07:49:49;;;;;;;10.63;5.15;;;18.80;99.90;;;;;;5064157;28;20321;-80
2023/08/11 07:52:15;;;;;;;9.70;4.43;;;18.90;99.90;;;;;;5054756;28;20124;-80
2023/08/11 07:54:40;;;;;;;7.95;4.53;;;18.90;99.90;;;;;;5063120;28;20434;-81
2023/08/11 07:57:06;;;;;;;10.75;4.53;;;19.00;99.90;;;;;;5067983;28;20036;-80
2023/08/11 07:59:31;;;;;;;8.63;4.38;;;19.10;99.90;;;;;;5063335;28;20066;-80
2023/08/11 08:01:59;;;;;;;5.95;3.65;;;19.20;99.90;;;;;;5046049;28;20041;-80
2023/08/11 08:04:25;;;;;;;9.00;4.03;;;19.30;99.90;;;;;;5051166;28;20045;-80
2023/08/11 08:06:50;;;;;;;10.32;3.85;;;19.50;99.90;;;;;;5051065;28;20154;-80
2023/08/11 08:09:16;;;;;;;6.75;3.80;;;19.70;99.90;;;;;;5067435;28;20243;-80
2023/08/11 08:11:43;;;;;;;8.90;3.92;;;19.90;99.90;;;;;;5067491;28;20502;-80
2023/08/11 08:14:10;;;;;;;7.53;4.00;;;20.10;99.90;;;;;;5048596;28;20109;-80
2023/08/11 08:16:38;;;;;;;5.32;3.58;;;20.30;99.90;;;;;;5047201;28;20048;-80
2023/08/11 08:19:05;;;;;;;6.35;3.65;;;20.40;99.90;;;;;;5063125;28;20037;-80
2023/08/11 08:21:32;;;;;;;11.57;4.10;;;20.60;99.90;;;;;;5039998;28;20044;-80
2023/08/11 08:23:57;;;;;;;6.63;3.72;;;20.70;99.90;;;;;;5066819;28;20032;-80
2023/08/11 08:26:23;;;;;;;7.85;3.97;;;20.80;99.90;;;;;;5066819;28;20537;-80
2023/08/11 08:28:49;;;;;;;8.57;3.78;;;20.90;99.90;;;;;;5044956;28;20029;-80
2023/08/11 08:31:15;;;;;;;9.02;4.38;;;21.10;99.90;;;;;;5061105;28;20029;-81
2023/08/11 08:33:40;;;;;;;5.78;3.80;;;21.10;99.90;;;;;;5062609;28;20024;-80
2023/08/11 08:36:06;;;;;;;7.32;4.03;;;21.30;99.90;;;;;;5064640;28;20625;-81
2023/08/11 08:38:32;;;;;;;6.55;3.38;;;21.40;99.90;;;;;;5054449;28;20033;-81
2023/08/11 08:40:58;;;;;;;7.30;3.50;;;21.50;99.90;;;;;;5054291;28;20045;-80
2023/08/11 08:43:23;;;;;;;6.25;3.88;;;21.60;99.90;;;;;;5061292;28;20044;-81
2023/08/11 08:45:52;;;;;;;6.13;4.03;;;21.70;99.90;;;;;;5060971;28;20033;-80
2023/08/11 08:48:30;;;;;;;8.90;4.10;;;21.90;99.90;;;;;;5066838;28;20094;-80
2023/08/11 08:50:56;;;;;;;7.50;3.67;;;21.90;99.90;;;;;;5061236;28;20045;-80
2023/08/11 08:53:22;;;;;;;7.55;3.90;;;22.20;99.90;;;;;;5067419;28;20051;-80
2023/08/11 08:55:48;;;;;;;8.13;3.53;;;22.20;99.90;;;;;;5060270;28;20029;-80
2023/08/11 08:58:15;;;;;;;6.38;3.78;;;22.30;99.90;;;;;;5047210;28;20041;-80
2023/08/11 09:00:42;;;;;;;5.70;3.00;;;22.40;99.90;;;;;;5066342;28;20049;-80
2023/08/11 09:03:09;;;;;;;6.60;3.33;;;22.50;99.90;;;;;;5047597;28;20037;-80
2023/08/11 09:05:35;;;;;;;8.50;3.97;;;22.60;99.90;;;;;;5045334;28;20414;-80
2023/08/11 09:08:01;;;;;;;8.50;3.30;;;22.70;99.90;;;;;;5051163;28;20110;-81
2023/08/11 09:10:29;;;;;;;8.38;3.17;;;22.70;99.90;;;;;;5049930;28;20474;-80
2023/08/11 09:12:54;;;;;;;6.30;3.35;;;22.90;99.90;;;;;;5066896;28;20032;-80
2023/08/11 09:15:22;;;;;;;6.72;3.20;;;23.00;99.90;;;;;;5050065;28;20457;-81
2023/08/11 09:17:47;;;;;;;4.75;3.00;;;23.10;99.90;;;;;;5050399;28;20343;-80
2023/08/11 09:20:17;;;;;;;7.05;2.97;;;23.10;99.90;;;;;;5047253;28;20048;-81
2023/08/11 09:22:43;;;;;;;6.72;3.35;;;23.20;99.90;;;;;;5045049;28;20124;-81
2023/08/11 09:25:10;;;;;;;5.68;2.92;;;23.30;99.90;;;;;;5057872;28;20128;-80
2023/08/11 09:27:36;;;;;;;6.97;2.70;;;23.40;99.90;;;;;;5058291;28;20045;-80
2023/08/11 09:30:03;;;;;;;9.20;3.00;;;23.40;99.90;;;;;;5058646;28;20084;-80
2023/08/11 09:32:32;;;;;;;7.28;3.13;;;23.50;99.90;;;;;;5070208;28;20044;-80
2023/08/11 09:35:09;;;;;;;6.55;3.60;;;23.60;99.90;;;;;;5064171;28;20420;-80
2023/08/11 09:37:35;;;;;;;8.25;3.20;;;23.60;99.90;;;;;;5056792;28;20043;-80
2023/08/11 09:40:03;;;;;;;5.72;2.40;;;23.60;99.90;;;;;;5062895;28;20082;-81
2023/08/11 09:42:29;;;;;;;6.28;3.25;;;23.70;99.90;;;;;;5063647;28;20032;-80
2023/08/11 09:44:55;;;;;;;8.07;2.90;;;23.80;99.90;;;;;;5060183;28;20505;-81
2023/08/11 09:47:21;;;;;;;5.53;2.80;;;23.90;99.90;;;;;;5064990;28;20098;-81
2023/08/11 09:49:46;;;;;;;6.15;2.97;;;23.90;99.90;;;;;;5053558;28;20044;-80
2023/08/11 09:52:12;;;;;;;5.82;2.80;;;24.00;99.90;;;;;;5065068;28;20044;-80
2023/08/11 09:54:44;;;;;;;6.20;2.70;;;24.10;99.90;;;;;;5049849;28;20383;-80
2023/08/11 09:57:13;;;;;;;7.13;2.95;;;24.20;99.90;;;;;;5053532;28;20064;-80
2023/08/11 09:59:39;;;;;;;5.53;2.65;;;24.30;99.90;;;;;;5058442;28;20499;-80
2023/08/11 10:02:11;;;;;;;7.88;2.58;;;24.40;99.90;;;;;;5053230;28;20048;-81
2023/08/11 10:04:44;;;;;;;6.25;2.80;;;24.60;99.90;;;;;;5070425;28;20115;-80
2023/08/11 10:07:15;;;;;;;5.43;2.80;;;24.60;99.90;;;;;;5045584;28;20045;-81
2023/08/11 10:09:44;;;;;;;7.03;2.88;;;24.70;99.90;;;;;;5063129;28;20040;-81
2023/08/11 10:12:10;;;;;;;6.78;2.90;;;24.80;99.90;;;;;;5060066;28;20049;-81
2023/08/11 10:14:38;;;;;;;5.00;2.60;;;24.90;99.90;;;;;;5063671;28;20038;-80
2023/08/11 10:17:04;;;;;;;7.20;2.85;;;24.90;99.90;;;;;;5070089;28;20032;-81
2023/08/11 10:19:30;;;;;;;5.55;2.42;;;25.10;99.90;;;;;;5069655;28;20033;-81
2023/08/11 10:21:57;;;;;;;6.40;2.22;;;25.20;99.90;;;;;;5062957;28;20039;-81
2023/08/11 10:24:24;;;;;;;4.95;2.42;;;25.30;99.90;;;;;;5061167;28;20033;-80
2023/08/11 10:26:50;;;;;;;6.18;2.88;;;25.30;99.90;;;;;;5064958;28;20132;-81
2023/08/11 10:29:17;;;;;;;8.75;2.65;;;25.40;99.90;;;;;;5058713;28;20040;-81
2023/08/11 10:31:59;;;;;;;6.72;2.47;;;25.50;99.90;;;;;;5052113;28;20076;-81
2023/08/11 10:34:25;;;;;;;7.03;2.83;;;25.60;99.90;;;;;;5063646;28;20036;-80
2023/08/11 10:36:56;;;;;;;5.65;2.20;;;25.70;99.90;;;;;;5064561;28;20028;-81
2023/08/11 10:39:22;;;;;;;7.80;2.55;;;25.80;99.90;;;;;;5068680;28;20045;-81
2023/08/11 10:41:49;;;;;;;7.70;2.65;;;25.90;99.90;;;;;;5066444;28;20273;-81
2023/08/11 10:44:19;;;;;;;5.70;2.10;;;26.00;99.90;;;;;;5064367;28;20055;-81
2023/08/11 10:46:46;;;;;;;5.20;2.40;;;26.20;99.90;;;;;;5066740;28;20036;-81
2023/08/11 10:49:14;;;;;;;7.60;2.22;;;26.40;99.90;;;;;;5051830;28;20294;-81
2023/08/11 10:51:41;;;;;;;6.35;2.50;;;26.50;99.90;;;;;;5063261;28;20554;-81
2023/08/11 10:54:09;;;;;;;7.28;2.97;;;26.60;99.90;;;;;;5048039;28;20036;-81
2023/08/11 10:56:37;;;;;;;5.07;2.28;;;26.70;99.90;;;;;;5051983;28;20434;-81
2023/08/11 10:59:21;;;;;;;9.02;2.30;;;26.70;99.90;;;;;;5069014;28;20036;-81
2023/08/11 11:01:49;;;;;;;5.25;1.85;;;26.70;99.90;;;;;;5069176;28;20127;-81
2023/08/11 11:04:16;;;;;;;5.03;2.40;;;26.70;99.90;;;;;;5068913;28;20510;-81
2023/08/11 11:06:44;;;;;;;5.32;2.42;;;26.70;99.90;;;;;;5068359;28;20040;-81
2023/08/11 11:09:10;;;;;;;6.15;1.95;;;26.70;99.90;;;;;;5063628;28;20055;-81
2023/08/11 11:11:36;;;;;;;4.63;2.20;;;26.80;99.90;;;;;;5057244;28;20029;-81
2023/08/11 11:14:09;;;;;;;3.85;2.13;;;26.90;99.90;;;;;;5059526;28;20157;-81
2023/08/11 11:16:36;;;;;;;5.43;1.85;;;26.90;99.90;;;;;;5047441;28;20033;-81
2023/08/11 11:19:03;;;;;;;6.20;2.05;;;27.00;99.90;;;;;;5057583;28;20068;-81
2023/08/11 11:21:29;;;;;;;6.05;2.65;;;27.10;99.90;;;;;;5067756;28;20123;-81
2023/08/11 11:23:55;;;;;;;8.05;2.53;;;27.20;99.90;;;;;;5067850;28;20046;-81
2023/08/11 11:26:31;;;;;;;4.90;2.20;;;27.20;99.90;;;;;;5055542;28;20074;-81
2023/08/11 11:28:59;;;;;;;6.22;2.03;;;27.30;99.90;;;;;;5039732;28;20064;-81
2023/08/11 11:31:27;;;;;;;6.32;2.53;;;27.30;99.50;;;;;;5062383;28;20089;-81
2023/08/11 11:33:53;;;;;;;9.05;2.28;;;27.40;99.90;;;;;;5060481;28;20032;-81
2023/08/11 11:36:20;;;;;;;5.78;2.38;;;27.40;99.90;;;;;;5062690;28;20513;-81
2023/08/11 11:38:47;;;;;;;5.95;1.83;;;27.40;99.90;;;;;;5051283;28;20193;-81
2023/08/11 11:41:15;;;;;;;5.65;2.10;;;27.40;99.80;;;;;;5046034;28;20052;-81
2023/08/11 11:43:41;;;;;;;3.50;1.90;;;27.40;99.30;;;;;;5067866;28;20035;-81
2023/08/11 11:46:14;;;;;;;6.30;2.05;;;27.60;99.90;;;;;;5050572;28;20047;-81
2023/08/11 11:48:53;;;;;;;4.68;1.80;;;27.60;99.40;;;;;;5063256;28;20028;-81
2023/08/11 11:51:29;;;;;;;6.75;2.17;;;27.60;99.50;;;;;;5026511;28;20150;-81
2023/08/11 11:53:58;;;;;;;5.53;1.80;;;27.60;99.50;;;;;;5068274;28;20033;-81
2023/08/11 11:56:27;;;;;;;6.60;2.33;;;27.50;99.40;;;;;;5062328;28;20036;-81
2023/08/11 11:58:54;;;;;;;4.38;2.20;;;27.50;99.90;;;;;;5067165;28;20040;-81
2023/08/11 12:01:22;;;;;;;4.57;2.38;;;27.50;99.80;;;;;;5039401;28;20067;-81
2023/08/11 12:03:50;;;;;;;5.15;2.08;;;27.50;99.80;;;;;;5064945;28;20135;-81
2023/08/11 12:06:20;;;;;;;6.75;2.38;;;27.60;99.80;;;;;;5050431;28;20040;-81
2023/08/11 12:08:49;;;;;;;4.53;1.85;;;27.60;99.30;;;;;;5060259;28;20076;-81
2023/08/11 12:11:20;;;;;;;4.80;2.20;;;27.70;99.50;;;;;;5058280;28;20039;-81
2023/08/11 12:13:46;;;;;;;6.88;2.08;;;27.80;98.90;;;;;;5050861;28;20033;-81
2023/08/11 12:16:15;;;;;;;6.75;2.45;;;27.80;99.30;;;;;;5038235;28;20079;-81
2023/08/11 12:18:41;;;;;;;6.18;2.38;;;27.90;99.20;;;;;;5048853;28;20375;-81
2023/08/11 12:21:09;;;;;;;4.93;1.98;;;28.00;98.30;;;;;;5053313;28;20505;-81
2023/08/11 12:23:35;;;;;;;6.95;2.40;;;28.00;98.70;;;;;;5062509;28;20374;-81
2023/08/11 12:26:00;;;;;;;5.35;2.00;;;28.10;98.90;;;;;;5066695;28;20052;-81
2023/08/11 12:28:26;;;;;;;6.07;2.35;;;28.10;98.10;;;;;;5047583;28;20134;-81
2023/08/11 12:30:52;;;;;;;6.70;1.83;;;28.10;98.50;;;;;;5044803;28;20040;-81
2023/08/11 12:33:18;;;;;;;4.78;2.00;;;28.20;98.70;;;;;;5046944;28;20549;-81
2023/08/11 12:35:45;;;;;;;5.05;2.05;;;28.30;98.50;;;;;;5048555;28;20108;-81
2023/08/11 12:38:12;;;;;;;7.25;2.47;;;28.30;98.00;;;;;;5046360;28;20047;-81